createdAt,value
2022-12-22T00:00:51.187Z,77.18
2022-12-22T00:01:51.828Z,77.18
2022-12-22T00:02:51.685Z,60.42
2022-12-22T00:03:51.956Z,79.60
2022-12-22T00:04:51.873Z,75.41
2022-12-22T00:05:52.683Z,53.98
2022-12-22T00:06:52.231Z,78.79
2022-12-22T00:07:52.406Z,54.62
2022-12-22T00:08:52.570Z,74.77
2022-12-22T00:09:52.744Z,52.85
2022-12-22T00:10:52.925Z,69.93
2022-12-22T00:11:53.079Z,75.41
2022-12-22T00:12:53.253Z,52.37
2022-12-22T00:13:54.228Z,53.50
2022-12-22T00:14:54.187Z,53.17
2022-12-22T00:15:53.846Z,58.49
2022-12-22T00:16:54.064Z,59.14
2022-12-22T00:17:55.051Z,65.58
2022-12-22T00:18:54.313Z,58.01
2022-12-22T00:19:56.188Z,53.66
2022-12-22T00:20:54.714Z,52.21
2022-12-22T00:21:54.892Z,66.06
2022-12-22T00:22:55.073Z,79.44
2022-12-22T00:23:55.321Z,52.53
2022-12-22T00:24:56.366Z,56.07
2022-12-22T00:25:55.505Z,74.60
2022-12-22T00:26:56.227Z,52.53
2022-12-22T00:27:56.691Z,53.33
2022-12-22T00:28:57.688Z,57.36
2022-12-22T00:29:56.307Z,54.95
2022-12-22T00:30:57.268Z,58.01
2022-12-22T00:31:56.681Z,81.86
2022-12-22T00:32:56.830Z,78.63
2022-12-22T00:33:56.994Z,63.33
2022-12-22T00:34:57.158Z,53.98
2022-12-22T00:35:58.693Z,77.67
2022-12-22T00:36:57.539Z,52.53
2022-12-22T00:37:57.701Z,74.12
2022-12-22T00:38:57.849Z,76.05
2022-12-22T00:39:58.689Z,53.33
2022-12-22T00:40:58.207Z,52.85
2022-12-22T00:41:59.053Z,51.56
2022-12-22T00:42:58.545Z,60.75
2022-12-22T00:43:58.695Z,53.82
2022-12-22T00:44:58.848Z,54.95
2022-12-22T00:45:59.084Z,53.66
2022-12-22T00:47:00.195Z,79.60
2022-12-22T00:47:59.429Z,62.36
2022-12-22T00:48:59.557Z,74.12
2022-12-22T00:49:59.716Z,51.72
2022-12-22T00:50:59.860Z,53.66
2022-12-22T00:52:00.250Z,53.01
2022-12-22T00:53:00.169Z,77.02
2022-12-22T00:54:00.330Z,76.54
2022-12-22T00:55:00.519Z,58.97
2022-12-22T00:56:00.699Z,77.02
2022-12-22T00:57:00.873Z,57.85
2022-12-22T00:58:01.041Z,52.37
2022-12-22T00:59:01.179Z,51.88
2022-12-22T01:00:01.385Z,53.82
2022-12-22T01:01:02.234Z,76.22
2022-12-22T01:02:02.411Z,77.34
2022-12-22T01:03:02.788Z,71.38
2022-12-22T01:04:02.740Z,83.31
2022-12-22T01:05:03.244Z,64.61
2022-12-22T01:06:02.398Z,53.98
2022-12-22T01:07:02.588Z,53.33
2022-12-22T01:08:02.756Z,54.62
2022-12-22T01:09:05.701Z,61.87
2022-12-22T01:10:03.699Z,55.59
2022-12-22T01:11:03.242Z,75.25
2022-12-22T01:12:03.425Z,56.88
2022-12-22T01:13:04.199Z,53.33
2022-12-22T01:14:04.701Z,51.40
2022-12-22T01:15:04.057Z,58.01
2022-12-22T01:16:05.764Z,51.40
2022-12-22T01:17:04.428Z,55.75
2022-12-22T01:18:04.663Z,51.08
2022-12-22T01:19:06.707Z,50.76
2022-12-22T01:20:05.039Z,51.40
2022-12-22T01:21:05.179Z,52.05
2022-12-22T01:22:05.326Z,72.67
2022-12-22T01:23:05.749Z,54.95
2022-12-22T01:24:06.603Z,54.62
2022-12-22T01:25:05.873Z,55.43
2022-12-22T01:26:06.740Z,53.50
2022-12-22T01:27:06.147Z,52.69
2022-12-22T01:28:06.315Z,52.53
2022-12-22T01:29:06.464Z,56.24
2022-12-22T01:30:07.210Z,58.01
2022-12-22T01:31:06.964Z,51.40
2022-12-22T01:32:07.059Z,52.53
2022-12-22T01:33:07.217Z,52.53
2022-12-22T01:34:07.376Z,53.98
2022-12-22T01:35:07.565Z,52.05
2022-12-22T01:36:08.704Z,52.21
2022-12-22T01:37:07.959Z,54.79
2022-12-22T01:38:09.567Z,55.91
2022-12-22T01:39:09.200Z,52.85
2022-12-22T01:40:08.454Z,54.46
2022-12-22T01:41:08.616Z,52.21
2022-12-22T01:42:08.793Z,52.37
2022-12-22T01:43:08.955Z,52.21
2022-12-22T01:44:09.257Z,76.86
2022-12-22T01:45:09.299Z,77.02
2022-12-22T01:46:10.251Z,77.02
2022-12-22T01:47:09.638Z,79.28
2022-12-22T01:48:09.820Z,59.46
2022-12-22T01:49:09.996Z,52.53
2022-12-22T01:50:10.165Z,53.33
2022-12-22T01:51:10.327Z,75.57
2022-12-22T01:52:11.242Z,56.40
2022-12-22T01:53:14.848Z,53.01
2022-12-22T01:54:13.574Z,52.85
2022-12-22T01:55:11.577Z,54.95
2022-12-22T01:56:12.082Z,57.69
2022-12-22T01:57:11.482Z,71.38
2022-12-22T01:58:11.661Z,59.46
2022-12-22T01:59:11.927Z,62.04
2022-12-22T02:00:12.003Z,73.64
2022-12-22T02:01:12.195Z,63.00
2022-12-22T02:02:12.539Z,58.49
2022-12-22T02:03:12.634Z,66.39
2022-12-22T02:04:12.744Z,60.42
2022-12-22T02:05:12.927Z,65.58
2022-12-22T02:06:13.097Z,53.82
2022-12-22T02:07:13.290Z,57.20
2022-12-22T02:08:13.479Z,70.90
2022-12-22T02:09:13.622Z,60.10
2022-12-22T02:10:14.711Z,58.01
2022-12-22T02:11:14.589Z,72.99
2022-12-22T02:12:14.202Z,59.94
2022-12-22T02:13:14.376Z,59.14
2022-12-22T02:14:14.510Z,78.96
2022-12-22T02:15:15.213Z,63.16
2022-12-22T02:16:15.777Z,59.30
2022-12-22T02:17:15.050Z,78.79
2022-12-22T02:18:15.289Z,60.75
2022-12-22T02:19:15.409Z,62.68
2022-12-22T02:20:15.570Z,63.00
2022-12-22T02:21:15.745Z,64.29
2022-12-22T02:22:16.721Z,77.50
2022-12-22T02:23:16.102Z,66.23
2022-12-22T02:24:16.306Z,66.23
2022-12-22T02:25:17.219Z,68.96
2022-12-22T02:26:16.585Z,81.21
2022-12-22T02:27:16.745Z,79.28
2022-12-22T02:28:16.901Z,64.78
2022-12-22T02:29:17.710Z,64.13
2022-12-22T02:30:17.203Z,65.42
2022-12-22T02:31:17.389Z,63.49
2022-12-22T02:32:18.231Z,64.61
2022-12-22T02:33:17.753Z,70.09
2022-12-22T02:34:18.729Z,63.81
2022-12-22T02:35:18.109Z,77.83
2022-12-22T02:36:18.261Z,61.39
2022-12-22T02:37:18.400Z,61.07
2022-12-22T02:38:19.256Z,62.36
2022-12-22T02:39:18.767Z,60.10
2022-12-22T02:40:18.945Z,66.87
2022-12-22T02:41:19.119Z,61.07
2022-12-22T02:42:19.253Z,65.26
2022-12-22T02:43:19.386Z,60.10
2022-12-22T02:44:19.546Z,63.65
2022-12-22T02:45:20.723Z,63.97
2022-12-22T02:46:19.908Z,62.36
2022-12-22T02:47:20.107Z,81.86
2022-12-22T02:48:21.088Z,61.71
2022-12-22T02:49:20.459Z,82.66
2022-12-22T02:50:20.768Z,77.34
2022-12-22T02:51:20.805Z,73.48
2022-12-22T02:52:20.939Z,60.59
2022-12-22T02:53:21.110Z,58.01
2022-12-22T02:54:22.226Z,78.79
2022-12-22T02:55:22.222Z,59.94
2022-12-22T02:56:21.621Z,58.97
2022-12-22T02:57:21.895Z,79.28
2022-12-22T02:58:22.594Z,67.68
2022-12-22T02:59:22.233Z,83.14
2022-12-22T03:00:22.370Z,75.09
2022-12-22T03:01:22.601Z,58.17
2022-12-22T03:02:23.003Z,60.10
2022-12-22T03:03:23.137Z,58.97
2022-12-22T03:04:23.133Z,59.14
2022-12-22T03:05:23.263Z,60.75
2022-12-22T03:06:23.435Z,58.65
2022-12-22T03:07:24.259Z,56.56
2022-12-22T03:08:23.802Z,76.22
2022-12-22T03:09:23.964Z,62.36
2022-12-22T03:10:24.115Z,77.50
2022-12-22T03:11:24.249Z,75.57
2022-12-22T03:12:24.398Z,78.47
2022-12-22T03:13:24.543Z,79.92
2022-12-22T03:14:24.775Z,79.12
2022-12-22T03:15:24.929Z,78.31
2022-12-22T03:16:26.692Z,79.28
2022-12-22T03:17:27.236Z,59.62
2022-12-22T03:18:25.471Z,78.63
2022-12-22T03:19:25.791Z,81.53
2022-12-22T03:20:25.829Z,73.96
2022-12-22T03:21:25.964Z,77.83
2022-12-22T03:22:27.232Z,59.14
2022-12-22T03:23:27.755Z,59.78
2022-12-22T03:24:26.552Z,73.15
2022-12-22T03:25:26.675Z,75.41
2022-12-22T03:26:28.729Z,59.46
2022-12-22T03:27:27.076Z,72.03
2022-12-22T03:28:27.225Z,56.88
2022-12-22T03:29:27.782Z,54.46
2022-12-22T03:30:27.565Z,77.83
2022-12-22T03:31:27.766Z,78.79
2022-12-22T03:32:27.877Z,75.25
2022-12-22T03:33:28.028Z,78.31
2022-12-22T03:34:28.191Z,80.08
2022-12-22T03:35:29.750Z,71.70
2022-12-22T03:36:28.512Z,77.99
2022-12-22T03:37:28.686Z,72.19
2022-12-22T03:38:28.882Z,73.80
2022-12-22T03:39:29.046Z,81.21
2022-12-22T03:40:29.223Z,78.15
2022-12-22T03:41:29.426Z,80.41
2022-12-22T03:42:30.289Z,79.76
2022-12-22T03:43:29.800Z,76.38
2022-12-22T03:44:29.967Z,77.67
2022-12-22T03:45:30.130Z,63.49
2022-12-22T03:46:30.374Z,70.58
2022-12-22T03:47:30.511Z,62.84
2022-12-22T03:48:30.688Z,77.34
2022-12-22T03:49:30.835Z,78.63
2022-12-22T03:50:32.736Z,75.09
2022-12-22T03:51:31.124Z,80.24
2022-12-22T03:52:31.267Z,79.92
2022-12-22T03:53:31.458Z,81.69
2022-12-22T03:54:32.280Z,74.77
2022-12-22T03:55:32.614Z,74.77
2022-12-22T03:56:32.013Z,82.34
2022-12-22T03:57:32.183Z,63.65
2022-12-22T03:58:32.351Z,78.79
2022-12-22T03:59:32.542Z,81.37
2022-12-22T04:00:33.277Z,74.12
2022-12-22T04:01:33.040Z,80.41
2022-12-22T04:02:33.142Z,78.47
2022-12-22T04:03:33.318Z,80.89
2022-12-22T04:04:33.515Z,76.54
2022-12-22T04:05:33.785Z,83.63
2022-12-22T04:06:33.807Z,79.92
2022-12-22T04:07:33.947Z,80.73
2022-12-22T04:08:34.096Z,78.96
2022-12-22T04:09:34.307Z,83.31
2022-12-22T04:10:35.303Z,79.12
2022-12-22T04:11:35.235Z,77.83
2022-12-22T04:12:34.748Z,83.63
2022-12-22T04:13:34.911Z,81.21
2022-12-22T04:14:35.164Z,80.89
2022-12-22T04:15:35.733Z,81.53
2022-12-22T04:16:36.359Z,75.25
2022-12-22T04:17:35.652Z,81.69
2022-12-22T04:18:35.699Z,80.73
2022-12-22T04:19:35.885Z,78.47
2022-12-22T04:20:36.607Z,81.05
2022-12-22T04:21:36.262Z,77.50
2022-12-22T04:22:36.425Z,79.60
2022-12-22T04:23:36.603Z,79.28
2022-12-22T04:24:36.784Z,79.92
2022-12-22T04:25:36.942Z,77.67
2022-12-22T04:26:37.091Z,85.40
2022-12-22T04:27:37.245Z,80.08
2022-12-22T04:28:37.394Z,79.28
2022-12-22T04:29:37.795Z,79.92
2022-12-22T04:30:37.719Z,80.41
2022-12-22T04:31:39.613Z,81.21
2022-12-22T04:32:38.120Z,79.44
2022-12-22T04:33:39.243Z,79.76
2022-12-22T04:34:38.477Z,81.53
2022-12-22T04:35:38.650Z,82.02
2022-12-22T04:36:39.297Z,78.63
2022-12-22T04:37:39.031Z,80.24
2022-12-22T04:38:40.115Z,82.34
2022-12-22T04:39:40.256Z,79.76
2022-12-22T04:40:39.796Z,81.53
2022-12-22T04:41:39.669Z,81.37
2022-12-22T04:42:40.786Z,78.96
2022-12-22T04:43:40.056Z,81.37
2022-12-22T04:44:40.196Z,102.00
2022-12-22T04:45:41.288Z,80.73
2022-12-22T04:46:40.546Z,81.05
2022-12-22T04:47:40.701Z,79.76
2022-12-22T04:48:41.758Z,80.73
2022-12-22T04:49:41.034Z,79.44
2022-12-22T04:50:41.199Z,81.37
2022-12-22T04:51:41.349Z,80.08
2022-12-22T04:52:41.513Z,82.18
2022-12-22T04:53:41.694Z,80.24
2022-12-22T04:54:41.866Z,80.73
2022-12-22T04:55:42.745Z,79.60
2022-12-22T04:56:42.268Z,83.14
2022-12-22T04:57:43.247Z,80.57
2022-12-22T04:58:42.805Z,79.44
2022-12-22T04:59:42.844Z,78.79
2022-12-22T05:00:43.746Z,81.69
2022-12-22T05:01:43.258Z,81.21
2022-12-22T05:02:43.385Z,84.11
2022-12-22T05:03:43.485Z,82.66
2022-12-22T05:04:44.247Z,80.24
2022-12-22T05:05:45.247Z,82.82
2022-12-22T05:06:44.752Z,82.50
2022-12-22T05:07:44.137Z,82.98
2022-12-22T05:08:44.314Z,80.41
2022-12-22T05:09:44.504Z,82.82
2022-12-22T05:10:45.759Z,82.98
2022-12-22T05:11:44.809Z,81.53
2022-12-22T05:12:45.750Z,78.79
2022-12-22T05:13:45.124Z,82.50
2022-12-22T05:14:46.395Z,83.14
2022-12-22T05:15:46.511Z,81.53
2022-12-22T05:16:45.871Z,82.98
2022-12-22T05:17:46.799Z,84.43
2022-12-22T05:18:46.040Z,84.27
2022-12-22T05:19:46.197Z,81.21
2022-12-22T05:20:47.252Z,77.34
2022-12-22T05:21:46.809Z,80.57
2022-12-22T05:22:47.266Z,81.69
2022-12-22T05:23:47.753Z,88.46
2022-12-22T05:24:47.019Z,83.14
2022-12-22T05:25:47.164Z,86.37
2022-12-22T05:26:48.258Z,83.95
2022-12-22T05:27:47.539Z,86.04
2022-12-22T05:28:47.789Z,82.66
2022-12-22T05:29:48.756Z,83.47
2022-12-22T05:30:48.852Z,81.21
2022-12-22T05:31:48.243Z,84.92
2022-12-22T05:32:48.393Z,81.69
2022-12-22T05:33:48.564Z,81.21
2022-12-22T05:34:48.749Z,82.18
2022-12-22T05:35:48.883Z,82.66
2022-12-22T05:36:49.799Z,83.47
2022-12-22T05:37:49.202Z,81.69
2022-12-22T05:38:49.361Z,84.92
2022-12-22T05:39:50.257Z,79.76
2022-12-22T05:40:50.623Z,80.89
2022-12-22T05:41:50.765Z,82.82
2022-12-22T05:42:50.045Z,83.95
2022-12-22T05:43:50.212Z,81.53
2022-12-22T05:44:50.391Z,82.50
2022-12-22T05:45:50.552Z,85.88
2022-12-22T05:46:50.811Z,80.89
2022-12-22T05:47:50.862Z,79.60
2022-12-22T05:48:51.030Z,82.66
2022-12-22T05:49:51.171Z,85.24
2022-12-22T05:50:52.305Z,82.18
2022-12-22T05:51:52.759Z,83.14
2022-12-22T05:52:51.633Z,83.79
2022-12-22T05:53:51.808Z,82.18
2022-12-22T05:54:51.942Z,81.69
2022-12-22T05:55:52.100Z,81.21
2022-12-22T05:56:52.316Z,80.57
2022-12-22T05:57:53.329Z,83.14
2022-12-22T05:58:53.263Z,79.92
2022-12-22T05:59:53.802Z,83.79
2022-12-22T06:00:53.051Z,83.95
2022-12-22T06:01:54.299Z,80.73
2022-12-22T06:02:53.589Z,81.69
2022-12-22T06:03:59.706Z,83.14
2022-12-22T06:04:55.866Z,80.41
2022-12-22T06:05:55.849Z,82.66
2022-12-22T06:06:54.264Z,81.37
2022-12-22T06:07:54.426Z,82.18
2022-12-22T06:08:55.268Z,82.34
2022-12-22T06:09:54.791Z,80.24
2022-12-22T06:10:56.785Z,82.82
2022-12-22T06:11:55.181Z,85.08
2022-12-22T06:12:55.373Z,79.92
2022-12-22T06:13:56.270Z,83.14
2022-12-22T06:14:56.307Z,82.02
2022-12-22T06:15:56.033Z,85.56
2022-12-22T06:16:56.090Z,82.02
2022-12-22T06:17:56.257Z,81.05
2022-12-22T06:18:56.827Z,87.17
2022-12-22T06:19:56.591Z,81.21
2022-12-22T06:20:57.310Z,82.02
2022-12-22T06:21:56.966Z,88.46
2022-12-22T06:22:58.775Z,82.34
2022-12-22T06:23:57.318Z,82.98
2022-12-22T06:24:58.331Z,80.41
2022-12-22T06:25:58.326Z,83.63
2022-12-22T06:26:57.866Z,81.37
2022-12-22T06:27:58.052Z,82.18
2022-12-22T06:28:58.204Z,82.98
2022-12-22T06:29:58.395Z,80.24
2022-12-22T06:30:59.382Z,82.18
2022-12-22T06:31:59.307Z,84.59
2022-12-22T06:32:58.841Z,81.53
2022-12-22T06:33:59.774Z,81.21
2022-12-22T06:34:59.323Z,84.27
2022-12-22T06:35:59.784Z,80.57
2022-12-22T06:37:01.795Z,80.73
2022-12-22T06:37:59.773Z,85.56
2022-12-22T06:39:00.813Z,82.50
2022-12-22T06:40:00.125Z,83.47
2022-12-22T06:41:00.321Z,81.69
2022-12-22T06:42:00.550Z,81.05
2022-12-22T06:43:06.059Z,80.73
2022-12-22T06:44:03.817Z,79.60
2022-12-22T06:45:01.028Z,82.82
2022-12-22T06:46:01.863Z,81.53
2022-12-22T06:47:01.408Z,79.92
2022-12-22T06:48:02.314Z,84.92
2022-12-22T06:49:03.140Z,81.53
2022-12-22T06:50:01.895Z,83.79
2022-12-22T06:51:02.055Z,82.02
2022-12-22T06:52:02.779Z,82.50
2022-12-22T06:53:02.420Z,82.34
2022-12-22T06:54:02.592Z,83.63
2022-12-22T06:55:03.278Z,80.57
2022-12-22T06:56:04.283Z,81.86
2022-12-22T06:57:03.135Z,80.08
2022-12-22T06:58:03.325Z,84.27
2022-12-22T06:59:03.469Z,82.34
2022-12-22T07:00:04.282Z,80.41
2022-12-22T07:01:03.836Z,81.53
2022-12-22T07:02:04.178Z,82.02
2022-12-22T07:03:04.965Z,79.44
2022-12-22T07:04:04.465Z,86.53
2022-12-22T07:05:05.354Z,78.47
2022-12-22T07:06:05.778Z,85.88
2022-12-22T07:07:05.075Z,82.18
2022-12-22T07:08:08.751Z,84.11
2022-12-22T07:09:07.309Z,83.14
2022-12-22T07:10:07.145Z,84.59
2022-12-22T07:11:06.900Z,80.89
2022-12-22T07:12:07.282Z,80.73
2022-12-22T07:13:06.047Z,80.41
2022-12-22T07:14:07.644Z,82.82
2022-12-22T07:15:07.338Z,82.50
2022-12-22T07:16:07.400Z,81.86
2022-12-22T07:17:06.841Z,79.60
2022-12-22T07:18:07.005Z,80.08
2022-12-22T07:19:07.171Z,83.31
2022-12-22T07:20:07.332Z,82.82
2022-12-22T07:21:07.503Z,85.08
2022-12-22T07:22:07.647Z,83.14
2022-12-22T07:23:07.821Z,82.66
2022-12-22T07:24:08.334Z,81.53
2022-12-22T07:25:08.821Z,84.11
2022-12-22T07:26:08.352Z,82.34
2022-12-22T07:27:09.283Z,82.02
2022-12-22T07:28:08.672Z,80.57
2022-12-22T07:29:08.887Z,78.96
2022-12-22T07:30:09.052Z,81.37
2022-12-22T07:31:09.259Z,84.76
2022-12-22T07:32:09.334Z,82.02
2022-12-22T07:33:10.289Z,80.08
2022-12-22T07:34:09.705Z,81.21
2022-12-22T07:35:09.875Z,87.17
2022-12-22T07:36:10.067Z,80.89
2022-12-22T07:37:10.786Z,80.73
2022-12-22T07:38:10.436Z,83.14
2022-12-22T07:39:10.631Z,81.86
2022-12-22T07:40:11.789Z,87.17
2022-12-22T07:41:10.927Z,80.89
2022-12-22T07:42:11.077Z,79.76
2022-12-22T07:43:11.787Z,85.88
2022-12-22T07:44:11.432Z,84.92
2022-12-22T07:45:11.650Z,81.37
2022-12-22T07:46:11.848Z,82.34
2022-12-22T07:47:12.011Z,80.24
2022-12-22T07:48:12.191Z,80.08
2022-12-22T07:49:12.365Z,84.11
2022-12-22T07:50:12.551Z,82.34
2022-12-22T07:51:12.724Z,83.31
2022-12-22T07:52:12.915Z,81.05
2022-12-22T07:53:13.076Z,83.14
2022-12-22T07:54:13.264Z,86.69
2022-12-22T07:55:13.421Z,77.99
2022-12-22T07:56:13.623Z,79.76
2022-12-22T07:57:13.819Z,80.24
2022-12-22T07:58:14.341Z,81.53
2022-12-22T07:59:14.080Z,82.82
2022-12-22T08:00:14.253Z,79.76
2022-12-22T08:01:14.405Z,83.31
2022-12-22T08:02:14.692Z,80.89
2022-12-22T08:03:16.470Z,84.11
2022-12-22T08:04:14.913Z,81.21
2022-12-22T08:05:15.127Z,84.59
2022-12-22T08:06:15.831Z,83.95
2022-12-22T08:07:15.367Z,81.05
2022-12-22T08:08:16.298Z,83.63
2022-12-22T08:09:15.687Z,80.73
2022-12-22T08:10:15.830Z,81.69
2022-12-22T08:11:16.811Z,82.18
2022-12-22T08:12:16.794Z,81.86
2022-12-22T08:13:17.377Z,78.96
2022-12-22T08:14:16.682Z,78.96
2022-12-22T08:15:17.834Z,82.66
2022-12-22T08:16:17.841Z,84.92
2022-12-22T08:17:17.802Z,85.88
2022-12-22T08:18:18.306Z,80.89
2022-12-22T08:19:17.467Z,82.82
2022-12-22T08:20:18.336Z,80.41
2022-12-22T08:21:17.855Z,81.53
2022-12-22T08:22:18.059Z,83.47
2022-12-22T08:23:18.846Z,80.08
2022-12-22T08:24:18.392Z,85.56
2022-12-22T08:25:20.311Z,85.56
2022-12-22T08:26:18.692Z,84.59
2022-12-22T08:27:25.679Z,80.08
2022-12-22T08:28:21.801Z,79.28
2022-12-22T08:29:19.171Z,81.69
2022-12-22T08:30:20.341Z,82.82
2022-12-22T08:31:21.338Z,82.50
2022-12-22T08:32:19.844Z,81.21
2022-12-22T08:33:19.853Z,81.53
2022-12-22T08:34:20.845Z,80.89
2022-12-22T08:35:20.802Z,86.21
2022-12-22T08:36:20.852Z,82.50
2022-12-22T08:37:20.501Z,85.40
2022-12-22T08:38:20.663Z,81.37
2022-12-22T08:39:21.356Z,79.12
2022-12-22T08:40:21.860Z,80.08
2022-12-22T08:41:21.357Z,80.08
2022-12-22T08:42:23.323Z,81.53
2022-12-22T08:43:22.317Z,85.08
2022-12-22T08:44:21.716Z,82.66
2022-12-22T08:45:21.907Z,80.89
2022-12-22T08:46:22.143Z,84.92
2022-12-22T08:47:22.900Z,82.82
2022-12-22T08:48:23.348Z,82.66
2022-12-22T08:49:23.378Z,82.18
2022-12-22T08:50:23.378Z,82.02
2022-12-22T08:51:22.886Z,82.82
2022-12-22T08:52:23.814Z,80.89
2022-12-22T08:54:03.263Z,81.37
2022-12-22T08:54:25.365Z,81.37
2022-12-22T08:55:24.344Z,81.21
2022-12-22T08:56:23.633Z,84.11
2022-12-22T08:57:23.823Z,82.82
2022-12-22T08:58:24.815Z,84.11
2022-12-22T08:59:24.222Z,80.73
2022-12-22T09:00:24.398Z,80.41
2022-12-22T09:01:24.729Z,79.76
2022-12-22T09:02:24.900Z,82.02
2022-12-22T09:03:24.912Z,111.50
2022-12-22T09:04:25.365Z,82.98
2022-12-22T09:05:26.677Z,81.53
2022-12-22T09:06:27.494Z,81.21
2022-12-22T09:07:26.517Z,87.50
2022-12-22T09:08:26.344Z,85.56
2022-12-22T09:09:25.891Z,79.60
2022-12-22T09:10:26.099Z,80.08
2022-12-22T09:11:26.813Z,84.11
2022-12-22T09:12:26.525Z,82.66
2022-12-22T09:13:26.681Z,79.76
2022-12-22T09:14:26.870Z,84.11
2022-12-22T09:15:27.815Z,80.08
2022-12-22T09:16:27.273Z,79.28
2022-12-22T09:17:28.348Z,80.24
2022-12-22T09:18:28.319Z,78.47
2022-12-22T09:19:27.863Z,80.57
2022-12-22T09:20:28.070Z,82.18
2022-12-22T09:21:28.252Z,80.57
2022-12-22T09:22:30.317Z,79.44
2022-12-22T09:23:28.558Z,83.95
2022-12-22T09:24:28.766Z,84.11
2022-12-22T09:25:28.849Z,81.21
2022-12-22T09:26:30.814Z,81.69
2022-12-22T09:27:29.679Z,81.05
2022-12-22T09:28:29.856Z,82.18
2022-12-22T09:29:29.533Z,80.24
2022-12-22T09:30:29.708Z,82.66
2022-12-22T09:31:31.345Z,80.08
2022-12-22T09:32:30.819Z,82.66
2022-12-22T09:33:30.230Z,81.21
2022-12-22T09:34:30.458Z,80.57
2022-12-22T09:35:31.360Z,82.98
2022-12-22T09:36:31.326Z,82.50
2022-12-22T09:37:30.964Z,81.53
2022-12-22T09:38:31.151Z,81.37
2022-12-22T09:39:31.396Z,78.47
2022-12-22T09:40:31.569Z,84.43
2022-12-22T09:41:31.967Z,81.21
2022-12-22T09:42:33.316Z,80.24
2022-12-22T09:43:33.099Z,81.37
2022-12-22T09:44:32.837Z,78.79
2022-12-22T09:45:32.881Z,78.79
2022-12-22T09:46:32.639Z,83.14
2022-12-22T09:47:32.871Z,80.41
2022-12-22T09:48:32.931Z,77.67
2022-12-22T09:49:33.112Z,82.18
2022-12-22T09:50:33.831Z,78.96
2022-12-22T09:51:33.483Z,81.21
2022-12-22T09:52:34.823Z,79.92
2022-12-22T09:53:33.982Z,80.41
2022-12-22T09:54:34.999Z,80.24
2022-12-22T09:55:34.862Z,80.08
2022-12-22T09:56:34.233Z,79.60
2022-12-22T09:57:35.335Z,81.05
2022-12-22T09:58:36.332Z,81.05
2022-12-22T09:59:35.326Z,79.28
2022-12-22T10:00:34.851Z,81.53
2022-12-22T10:01:35.114Z,81.05
2022-12-22T10:02:35.919Z,72.67
2022-12-22T10:03:36.347Z,80.08
2022-12-22T10:04:36.347Z,83.47
2022-12-22T10:05:35.872Z,79.44
2022-12-22T10:06:36.835Z,77.02
2022-12-22T10:07:36.833Z,81.53
2022-12-22T10:08:36.380Z,79.92
2022-12-22T10:09:49.778Z,78.96
2022-12-22T10:10:38.784Z,78.31
2022-12-22T10:11:36.899Z,81.69
2022-12-22T10:12:37.074Z,81.69
2022-12-22T10:13:37.299Z,80.41
2022-12-22T10:14:37.385Z,78.63
2022-12-22T10:15:38.366Z,79.44
2022-12-22T10:16:38.405Z,80.73
2022-12-22T10:17:37.996Z,80.73
2022-12-22T10:18:38.188Z,79.76
2022-12-22T10:19:38.898Z,79.28
2022-12-22T10:20:39.333Z,83.47
2022-12-22T10:21:44.647Z,82.66
2022-12-22T10:22:43.832Z,85.56
2022-12-22T10:23:39.134Z,78.15
2022-12-22T10:24:39.826Z,79.76
2022-12-22T10:26:43.193Z,81.53
2022-12-22T10:27:44.258Z,80.24
2022-12-22T10:28:42.828Z,81.69
2022-12-22T10:29:40.302Z,79.44
2022-12-22T10:30:40.477Z,79.28
2022-12-22T10:31:40.660Z,78.31
2022-12-22T10:32:40.876Z,77.99
2022-12-22T10:33:46.455Z,80.57
2022-12-22T10:34:43.151Z,83.14
2022-12-22T10:35:41.400Z,77.99
2022-12-22T10:36:43.328Z,80.57
2022-12-22T10:37:42.834Z,80.24
2022-12-22T10:38:41.873Z,79.28
2022-12-22T10:39:42.017Z,78.15
2022-12-22T10:40:42.187Z,81.69
2022-12-22T10:41:43.331Z,78.47
2022-12-22T10:42:42.557Z,82.66
2022-12-22T10:43:42.790Z,80.89
2022-12-22T10:44:42.916Z,81.05
2022-12-22T10:45:43.202Z,81.86
2022-12-22T10:46:44.335Z,80.73
2022-12-22T10:47:43.567Z,80.57
2022-12-22T10:48:43.713Z,79.12
2022-12-22T10:51:15.384Z,80.89
2022-12-22T10:52:15.543Z,78.63
2022-12-22T10:53:15.695Z,81.05
2022-12-22T10:54:16.380Z,78.96
2022-12-22T10:55:16.014Z,82.82
2022-12-22T10:56:16.194Z,77.67
2022-12-22T10:57:18.469Z,79.44
2022-12-22T10:58:17.709Z,79.60
2022-12-22T10:59:17.816Z,80.73
2022-12-22T11:00:18.042Z,83.31
2022-12-22T11:01:18.309Z,79.76
2022-12-22T11:02:18.581Z,82.18
2022-12-22T11:03:24.173Z,78.96
2022-12-22T11:04:20.773Z,82.02
2022-12-22T11:05:19.516Z,77.34
2022-12-22T11:06:19.142Z,80.08
2022-12-22T11:07:19.407Z,80.73
2022-12-22T11:08:19.538Z,78.15
2022-12-22T11:09:35.055Z,78.15
2022-12-22T11:10:21.939Z,79.60
2022-12-22T11:11:20.166Z,82.18
2022-12-22T11:12:21.013Z,79.28
2022-12-22T11:13:21.496Z,80.89
2022-12-22T11:14:20.646Z,78.79
2022-12-22T11:15:24.736Z,78.31
2022-12-22T11:16:22.058Z,80.08
2022-12-22T11:17:21.297Z,79.76
2022-12-22T11:18:22.992Z,82.50
2022-12-22T11:19:21.630Z,78.79
2022-12-22T11:20:21.845Z,82.66
2022-12-22T11:21:24.323Z,79.92
2022-12-22T11:22:23.201Z,78.96
2022-12-22T11:23:22.996Z,78.63
2022-12-22T11:24:22.517Z,77.67
2022-12-22T11:25:24.991Z,79.92
2022-12-22T11:26:22.885Z,80.24
2022-12-22T11:27:23.057Z,78.31
2022-12-22T11:28:23.271Z,79.44
2022-12-22T11:29:23.976Z,81.53
2022-12-22T11:30:24.481Z,79.76
2022-12-22T11:31:23.932Z,81.53
2022-12-22T11:32:24.020Z,81.21
2022-12-22T11:33:24.188Z,77.18
2022-12-22T11:34:24.981Z,77.99
2022-12-22T11:35:25.481Z,78.47
2022-12-22T11:36:25.481Z,80.08
2022-12-22T11:37:25.488Z,80.73
2022-12-22T11:38:25.021Z,79.92
2022-12-22T11:39:25.184Z,80.24
2022-12-22T11:40:26.988Z,82.02
2022-12-22T11:41:25.497Z,79.76
2022-12-22T11:42:25.675Z,79.28
2022-12-22T11:43:26.503Z,80.24
2022-12-22T11:44:26.068Z,82.18
2022-12-22T11:45:27.987Z,79.60
2022-12-22T11:46:26.397Z,79.44
2022-12-22T11:47:26.493Z,83.14
2022-12-22T11:48:26.661Z,79.76
2022-12-22T11:49:27.038Z,80.08
2022-12-22T11:51:02.205Z,82.66
2022-12-22T11:51:29.317Z,81.05
2022-12-22T11:52:28.986Z,81.21
2022-12-22T11:53:27.561Z,80.41
2022-12-22T11:54:27.698Z,82.98
2022-12-22T11:55:28.995Z,78.79
2022-12-22T11:56:28.192Z,83.31
2022-12-22T11:57:29.032Z,82.34
2022-12-22T11:58:28.995Z,77.99
2022-12-22T11:59:28.655Z,79.92
2022-12-22T12:01:03.715Z,81.69
2022-12-22T12:01:31.065Z,80.41
2022-12-22T12:02:30.337Z,82.18
2022-12-22T12:03:30.210Z,79.76
2022-12-22T12:04:29.616Z,80.89
2022-12-22T12:05:32.503Z,80.08
2022-12-22T12:06:29.898Z,77.83
2022-12-22T12:07:30.034Z,78.79
2022-12-22T12:08:31.026Z,87.50
2022-12-22T12:09:31.028Z,76.05
2022-12-22T12:10:30.547Z,77.02
2022-12-22T12:11:30.702Z,80.24
2022-12-22T12:12:30.868Z,82.02
2022-12-22T12:13:36.782Z,83.63
2022-12-22T12:14:34.993Z,76.70
2022-12-22T12:15:32.993Z,78.47
2022-12-22T12:16:32.519Z,82.34
2022-12-22T12:17:32.530Z,81.21
2022-12-22T12:18:31.944Z,84.11
2022-12-22T12:19:32.122Z,83.14
2022-12-22T12:20:32.296Z,77.67
2022-12-22T12:21:32.451Z,82.02
2022-12-22T12:22:33.533Z,81.21
2022-12-22T12:23:32.821Z,79.92
2022-12-22T12:24:33.000Z,80.57
2022-12-22T12:25:33.149Z,80.73
2022-12-22T12:26:33.318Z,82.50
2022-12-22T12:27:34.029Z,80.57
2022-12-22T12:28:34.357Z,83.31
2022-12-22T12:29:33.886Z,82.02
2022-12-22T12:30:38.924Z,78.15
2022-12-22T12:31:36.218Z,78.63
2022-12-22T12:32:34.345Z,78.63
2022-12-22T12:33:35.045Z,79.44
2022-12-22T12:34:35.073Z,83.31
2022-12-22T12:35:35.048Z,77.83
2022-12-22T12:36:34.965Z,81.21
2022-12-22T12:37:35.127Z,79.28
2022-12-22T12:39:38.009Z,81.69
2022-12-22T12:40:35.617Z,81.69
2022-12-22T12:41:36.532Z,83.63
2022-12-22T12:42:35.951Z,79.76
2022-12-22T12:43:36.116Z,79.76
2022-12-22T12:44:36.335Z,81.21
2022-12-22T12:45:36.521Z,78.15
2022-12-22T12:46:36.706Z,78.47
2022-12-22T12:47:37.548Z,79.92
2022-12-22T12:48:40.078Z,82.02
2022-12-22T12:49:37.551Z,82.34
2022-12-22T12:50:37.478Z,79.12
2022-12-22T12:51:38.389Z,78.96
2022-12-22T12:52:37.847Z,78.47
2022-12-22T12:53:38.998Z,80.73
2022-12-22T12:54:38.236Z,81.69
2022-12-22T12:55:38.439Z,78.96
2022-12-22T12:56:38.641Z,81.53
2022-12-22T12:57:38.886Z,82.66
2022-12-22T12:58:40.031Z,82.34